sensor_id;sensor_type;location;lat;lon;timestamp;temperature;humidity
21772;DHT22;11047;47.904;8.110;2023-07-20T00:00:58;16.80;99.90
21772;DHT22;11047;47.904;8.110;2023-07-20T00:03:25;16.80;99.90
21772;DHT22;11047;47.904;8.110;2023-07-20T00:05:53;16.80;99.90
21772;DHT22;11047;47.904;8.110;2023-07-20T00:08:20;16.80;99.90
21772;DHT22;11047;47.904;8.110;2023-07-20T00:10:47;16.80;99.90
21772;DHT22;11047;47.904;8.110;2023-07-20T00:13:14;16.80;99.90
21772;DHT22;11047;47.904;8.110;2023-07-20T00:15:44;16.50;99.90
21772;DHT22;11047;47.904;8.110;2023-07-20T00:18:11;16.40;99.90
21772;DHT22;11047;47.904;8.110;2023-07-20T00:20:38;16.30;99.90
21772;DHT22;11047;47.904;8.110;2023-07-20T00:23:06;16.30;99.90
21772;DHT22;11047;47.904;8.110;2023-07-20T00:25:34;16.30;99.90
21772;DHT22;11047;47.904;8.110;2023-07-20T00:28:01;16.30;99.90
21772;DHT22;11047;47.904;8.110;2023-07-20T00:30:28;16.30;99.90
21772;DHT22;11047;47.904;8.110;2023-07-20T00:32:55;16.30;99.90
21772;DHT22;11047;47.904;8.110;2023-07-20T00:35:22;16.20;99.90
21772;DHT22;11047;47.904;8.110;2023-07-20T00:37:49;16.00;99.90
21772;DHT22;11047;47.904;8.110;2023-07-20T00:40:17;15.90;99.90
21772;DHT22;11047;47.904;8.110;2023-07-20T00:42:44;15.80;99.90
21772;DHT22;11047;47.904;8.110;2023-07-20T00:45:11;15.80;99.90
21772;DHT22;11047;47.904;8.110;2023-07-20T00:47:38;15.80;99.90
21772;DHT22;11047;47.904;8.110;2023-07-20T00:50:06;15.70;99.90
21772;DHT22;11047;47.904;8.110;2023-07-20T00:52:34;15.70;99.90
21772;DHT22;11047;47.904;8.110;2023-07-20T00:55:01;15.50;99.90
21772;DHT22;11047;47.904;8.110;2023-07-20T00:57:30;15.50;99.90
21772;DHT22;11047;47.904;8.110;2023-07-20T00:59:57;15.60;99.90
21772;DHT22;11047;47.904;8.110;2023-07-20T01:02:24;15.70;99.90
21772;DHT22;11047;47.904;8.110;2023-07-20T01:04:51;15.70;99.90
21772;DHT22;11047;47.904;8.110;2023-07-20T01:07:24;15.50;99.90
21772;DHT22;11047;47.904;8.110;2023-07-20T01:09:59;15.40;99.90
21772;DHT22;11047;47.904;8.110;2023-07-20T01:12:33;15.40;99.90
21772;DHT22;11047;47.904;8.110;2023-07-20T01:15:03;15.40;99.90
21772;DHT22;11047;47.904;8.110;2023-07-20T01:17:30;15.50;99.90
21772;DHT22;11047;47.904;8.110;2023-07-20T01:19:57;15.50;99.90
21772;DHT22;11047;47.904;8.110;2023-07-20T01:22:42;15.50;99.90
21772;DHT22;11047;47.904;8.110;2023-07-20T01:25:30;15.50;99.90
21772;DHT22;11047;47.904;8.110;2023-07-20T01:28:37;15.40;99.90
21772;DHT22;11047;47.904;8.110;2023-07-20T01:31:24;15.30;99.90
21772;DHT22;11047;47.904;8.110;2023-07-20T01:33:55;15.20;99.90
21772;DHT22;11047;47.904;8.110;2023-07-20T01:36:24;15.00;99.90
21772;DHT22;11047;47.904;8.110;2023-07-20T01:38:52;14.90;99.90
21772;DHT22;11047;47.904;8.110;2023-07-20T01:41:19;14.90;99.90
21772;DHT22;11047;47.904;8.110;2023-07-20T01:43:46;14.90;99.90
21772;DHT22;11047;47.904;8.110;2023-07-20T01:46:13;14.90;99.90
21772;DHT22;11047;47.904;8.110;2023-07-20T01:48:42;14.80;99.90
21772;DHT22;11047;47.904;8.110;2023-07-20T01:51:09;14.70;99.90
21772;DHT22;11047;47.904;8.110;2023-07-20T01:53:37;14.60;99.90
21772;DHT22;11047;47.904;8.110;2023-07-20T01:56:04;14.50;99.90
21772;DHT22;11047;47.904;8.110;2023-07-20T01:58:31;14.40;99.90
21772;DHT22;11047;47.904;8.110;2023-07-20T02:00:58;14.40;99.90
21772;DHT22;11047;47.904;8.110;2023-07-20T02:03:25;14.30;99.90
21772;DHT22;11047;47.904;8.110;2023-07-20T02:05:53;14.30;99.90
21772;DHT22;11047;47.904;8.110;2023-07-20T02:08:20;14.20;99.90
21772;DHT22;11047;47.904;8.110;2023-07-20T02:10:47;14.00;99.90
21772;DHT22;11047;47.904;8.110;2023-07-20T02:13:14;14.00;99.90
21772;DHT22;11047;47.904;8.110;2023-07-20T02:15:43;14.00;99.90
21772;DHT22;11047;47.904;8.110;2023-07-20T02:18:12;14.10;99.90
21772;DHT22;11047;47.904;8.110;2023-07-20T02:20:40;14.00;99.90
21772;DHT22;11047;47.904;8.110;2023-07-20T02:23:10;14.00;99.90
21772;DHT22;11047;47.904;8.110;2023-07-20T02:25:37;13.90;99.90
21772;DHT22;11047;47.904;8.110;2023-07-20T02:28:06;14.00;99.90
21772;DHT22;11047;47.904;8.110;2023-07-20T02:30:33;14.00;99.90
21772;DHT22;11047;47.904;8.110;2023-07-20T02:33:00;14.00;99.90
21772;DHT22;11047;47.904;8.110;2023-07-20T02:35:27;13.80;99.90
21772;DHT22;11047;47.904;8.110;2023-07-20T02:37:54;13.80;99.90
21772;DHT22;11047;47.904;8.110;2023-07-20T02:40:22;13.80;99.90
21772;DHT22;11047;47.904;8.110;2023-07-20T02:42:49;13.60;99.90
21772;DHT22;11047;47.904;8.110;2023-07-20T02:45:16;13.50;99.90
21772;DHT22;11047;47.904;8.110;2023-07-20T02:47:43;13.50;99.90
21772;DHT22;11047;47.904;8.110;2023-07-20T02:50:10;13.60;99.90
21772;DHT22;11047;47.904;8.110;2023-07-20T02:52:39;13.60;99.90
21772;DHT22;11047;47.904;8.110;2023-07-20T02:55:06;13.30;99.90
21772;DHT22;11047;47.904;8.110;2023-07-20T02:57:35;13.30;99.90
21772;DHT22;11047;47.904;8.110;2023-07-20T03:00:02;13.40;99.90
21772;DHT22;11047;47.904;8.110;2023-07-20T03:02:31;13.30;99.90
21772;DHT22;11047;47.904;8.110;2023-07-20T03:04:58;13.20;99.90
21772;DHT22;11047;47.904;8.110;2023-07-20T03:07:27;13.20;99.90
21772;DHT22;11047;47.904;8.110;2023-07-20T03:09:54;13.20;99.90
21772;DHT22;11047;47.904;8.110;2023-07-20T03:12:21;13.10;99.90
21772;DHT22;11047;47.904;8.110;2023-07-20T03:14:51;13.30;99.90
21772;DHT22;11047;47.904;8.110;2023-07-20T03:17:19;13.30;99.90
21772;DHT22;11047;47.904;8.110;2023-07-20T03:19:46;13.20;99.90
21772;DHT22;11047;47.904;8.110;2023-07-20T03:22:13;13.10;99.90
21772;DHT22;11047;47.904;8.110;2023-07-20T03:24:40;13.20;99.90
21772;DHT22;11047;47.904;8.110;2023-07-20T03:27:07;13.20;99.90
21772;DHT22;11047;47.904;8.110;2023-07-20T03:29:34;13.20;99.90
21772;DHT22;11047;47.904;8.110;2023-07-20T03:32:03;13.10;99.90
21772;DHT22;11047;47.904;8.110;2023-07-20T03:34:29;13.00;99.90
21772;DHT22;11047;47.904;8.110;2023-07-20T03:36:56;13.00;99.90
21772;DHT22;11047;47.904;8.110;2023-07-20T03:39:25;13.00;99.90
21772;DHT22;11047;47.904;8.110;2023-07-20T03:41:51;12.90;99.90
21772;DHT22;11047;47.904;8.110;2023-07-20T03:44:18;12.90;99.90
21772;DHT22;11047;47.904;8.110;2023-07-20T03:46:45;12.90;99.90
21772;DHT22;11047;47.904;8.110;2023-07-20T03:49:13;12.90;99.90
21772;DHT22;11047;47.904;8.110;2023-07-20T03:51:40;12.80;99.90
21772;DHT22;11047;47.904;8.110;2023-07-20T03:54:07;12.90;99.90
21772;DHT22;11047;47.904;8.110;2023-07-20T03:56:35;12.80;99.90
21772;DHT22;11047;47.904;8.110;2023-07-20T03:59:02;12.60;99.90
21772;DHT22;11047;47.904;8.110;2023-07-20T04:01:29;12.70;99.90
21772;DHT22;11047;47.904;8.110;2023-07-20T04:03:56;12.70;99.90
21772;DHT22;11047;47.904;8.110;2023-07-20T04:06:24;12.80;99.90
21772;DHT22;11047;47.904;8.110;2023-07-20T04:08:51;12.90;99.90
21772;DHT22;11047;47.904;8.110;2023-07-20T04:11:18;12.80;99.90
21772;DHT22;11047;47.904;8.110;2023-07-20T04:13:45;12.80;99.90
21772;DHT22;11047;47.904;8.110;2023-07-20T04:16:12;12.80;99.90
21772;DHT22;11047;47.904;8.110;2023-07-20T04:18:38;12.90;99.90
21772;DHT22;11047;47.904;8.110;2023-07-20T04:21:07;12.90;99.90
21772;DHT22;11047;47.904;8.110;2023-07-20T04:23:35;12.90;99.90
21772;DHT22;11047;47.904;8.110;2023-07-20T04:26:02;12.80;99.90
21772;DHT22;11047;47.904;8.110;2023-07-20T04:28:29;12.90;99.90
21772;DHT22;11047;47.904;8.110;2023-07-20T04:31:09;13.10;99.90
21772;DHT22;11047;47.904;8.110;2023-07-20T04:33:37;13.10;99.90
21772;DHT22;11047;47.904;8.110;2023-07-20T04:36:04;13.10;99.90
21772;DHT22;11047;47.904;8.110;2023-07-20T04:38:31;13.00;99.90
21772;DHT22;11047;47.904;8.110;2023-07-20T04:40:59;13.10;99.90
21772;DHT22;11047;47.904;8.110;2023-07-20T04:43:26;13.20;99.90
21772;DHT22;11047;47.904;8.110;2023-07-20T04:45:53;13.20;99.90
21772;DHT22;11047;47.904;8.110;2023-07-20T04:48:20;13.30;99.90
21772;DHT22;11047;47.904;8.110;2023-07-20T04:50:47;13.30;99.90
21772;DHT22;11047;47.904;8.110;2023-07-20T04:53:14;13.30;99.90
21772;DHT22;11047;47.904;8.110;2023-07-20T04:55:46;13.40;99.90
21772;DHT22;11047;47.904;8.110;2023-07-20T04:58:17;13.40;99.90
21772;DHT22;11047;47.904;8.110;2023-07-20T05:00:44;13.50;99.90
21772;DHT22;11047;47.904;8.110;2023-07-20T05:03:11;13.50;99.90
21772;DHT22;11047;47.904;8.110;2023-07-20T05:05:38;13.60;99.90
21772;DHT22;11047;47.904;8.110;2023-07-20T05:08:05;13.70;99.90
21772;DHT22;11047;47.904;8.110;2023-07-20T05:10:32;13.80;99.90
21772;DHT22;11047;47.904;8.110;2023-07-20T05:12:59;13.90;99.90
21772;DHT22;11047;47.904;8.110;2023-07-20T05:15:27;14.00;99.90
21772;DHT22;11047;47.904;8.110;2023-07-20T05:17:54;14.20;99.90
21772;DHT22;11047;47.904;8.110;2023-07-20T05:20:21;14.20;99.90
21772;DHT22;11047;47.904;8.110;2023-07-20T05:22:48;14.30;99.90
21772;DHT22;11047;47.904;8.110;2023-07-20T05:25:15;14.30;99.90
21772;DHT22;11047;47.904;8.110;2023-07-20T05:27:44;14.30;99.90
21772;DHT22;11047;47.904;8.110;2023-07-20T05:30:12;14.30;99.90
21772;DHT22;11047;47.904;8.110;2023-07-20T05:32:40;14.40;99.90
21772;DHT22;11047;47.904;8.110;2023-07-20T05:35:08;14.50;99.90
21772;DHT22;11047;47.904;8.110;2023-07-20T05:37:37;14.70;99.90
21772;DHT22;11047;47.904;8.110;2023-07-20T05:40:05;14.80;99.90
21772;DHT22;11047;47.904;8.110;2023-07-20T05:42:33;14.90;99.90
21772;DHT22;11047;47.904;8.110;2023-07-20T05:45:00;14.90;99.90
21772;DHT22;11047;47.904;8.110;2023-07-20T05:47:27;14.90;99.90
21772;DHT22;11047;47.904;8.110;2023-07-20T05:49:56;14.90;99.90
21772;DHT22;11047;47.904;8.110;2023-07-20T05:52:23;14.90;99.90
21772;DHT22;11047;47.904;8.110;2023-07-20T05:54:50;14.90;99.90
21772;DHT22;11047;47.904;8.110;2023-07-20T05:57:16;15.00;99.90
21772;DHT22;11047;47.904;8.110;2023-07-20T05:59:44;15.00;99.90
21772;DHT22;11047;47.904;8.110;2023-07-20T06:02:11;15.00;99.90
21772;DHT22;11047;47.904;8.110;2023-07-20T06:04:38;15.10;99.90
21772;DHT22;11047;47.904;8.110;2023-07-20T06:07:07;15.30;99.90
21772;DHT22;11047;47.904;8.110;2023-07-20T06:09:34;15.40;99.90
21772;DHT22;11047;47.904;8.110;2023-07-20T06:12:01;15.50;99.90
21772;DHT22;11047;47.904;8.110;2023-07-20T06:14:28;15.60;99.90
21772;DHT22;11047;47.904;8.110;2023-07-20T06:16:55;15.70;99.90
21772;DHT22;11047;47.904;8.110;2023-07-20T06:19:22;15.80;99.90
21772;DHT22;11047;47.904;8.110;2023-07-20T06:21:49;15.90;99.90
21772;DHT22;11047;47.904;8.110;2023-07-20T06:24:17;15.90;99.90
21772;DHT22;11047;47.904;8.110;2023-07-20T06:26:44;16.00;99.90
21772;DHT22;11047;47.904;8.110;2023-07-20T06:29:11;16.00;99.90
21772;DHT22;11047;47.904;8.110;2023-07-20T06:31:38;16.00;99.90
21772;DHT22;11047;47.904;8.110;2023-07-20T06:34:05;16.10;99.90
21772;DHT22;11047;47.904;8.110;2023-07-20T06:36:32;16.10;99.90
21772;DHT22;11047;47.904;8.110;2023-07-20T06:38:58;16.20;99.90
21772;DHT22;11047;47.904;8.110;2023-07-20T06:41:27;16.20;99.90
21772;DHT22;11047;47.904;8.110;2023-07-20T06:43:54;16.20;99.90
21772;DHT22;11047;47.904;8.110;2023-07-20T06:46:24;16.20;99.90
21772;DHT22;11047;47.904;8.110;2023-07-20T06:48:51;16.40;99.90
21772;DHT22;11047;47.904;8.110;2023-07-20T06:51:18;16.40;99.90
21772;DHT22;11047;47.904;8.110;2023-07-20T06:53:45;16.50;99.90
21772;DHT22;11047;47.904;8.110;2023-07-20T06:56:12;16.60;99.90
21772;DHT22;11047;47.904;8.110;2023-07-20T06:58:40;16.70;99.90
21772;DHT22;11047;47.904;8.110;2023-07-20T07:01:07;16.60;99.90
21772;DHT22;11047;47.904;8.110;2023-07-20T07:03:35;16.60;99.90
21772;DHT22;11047;47.904;8.110;2023-07-20T07:06:02;16.70;99.90
21772;DHT22;11047;47.904;8.110;2023-07-20T07:08:29;16.60;99.90
21772;DHT22;11047;47.904;8.110;2023-07-20T07:10:56;16.90;99.90
21772;DHT22;11047;47.904;8.110;2023-07-20T07:13:23;17.00;99.90
21772;DHT22;11047;47.904;8.110;2023-07-20T07:15:51;17.10;99.90
21772;DHT22;11047;47.904;8.110;2023-07-20T07:18:18;17.40;99.90
21772;DHT22;11047;47.904;8.110;2023-07-20T07:20:54;17.40;99.90
21772;DHT22;11047;47.904;8.110;2023-07-20T07:23:21;17.60;99.90
21772;DHT22;11047;47.904;8.110;2023-07-20T07:25:48;17.90;99.90
21772;DHT22;11047;47.904;8.110;2023-07-20T07:28:15;18.00;99.90
21772;DHT22;11047;47.904;8.110;2023-07-20T07:30:42;18.30;99.90
21772;DHT22;11047;47.904;8.110;2023-07-20T07:33:11;18.50;99.90
21772;DHT22;11047;47.904;8.110;2023-07-20T07:35:38;18.80;99.90
21772;DHT22;11047;47.904;8.110;2023-07-20T07:38:05;18.90;99.90
21772;DHT22;11047;47.904;8.110;2023-07-20T07:40:32;19.20;99.90
21772;DHT22;11047;47.904;8.110;2023-07-20T07:42:59;19.40;99.90
21772;DHT22;11047;47.904;8.110;2023-07-20T07:45:26;19.60;99.90
21772;DHT22;11047;47.904;8.110;2023-07-20T07:47:53;19.70;99.90
21772;DHT22;11047;47.904;8.110;2023-07-20T07:50:21;19.80;99.90
21772;DHT22;11047;47.904;8.110;2023-07-20T07:52:48;20.20;99.90
21772;DHT22;11047;47.904;8.110;2023-07-20T07:55:15;20.30;99.90
21772;DHT22;11047;47.904;8.110;2023-07-20T07:57:43;20.50;99.90
21772;DHT22;11047;47.904;8.110;2023-07-20T08:00:11;20.70;99.90
21772;DHT22;11047;47.904;8.110;2023-07-20T08:02:40;20.90;99.90
21772;DHT22;11047;47.904;8.110;2023-07-20T08:05:08;21.10;99.90
21772;DHT22;11047;47.904;8.110;2023-07-20T08:07:37;21.20;99.90
21772;DHT22;11047;47.904;8.110;2023-07-20T08:10:05;20.60;99.90
21772;DHT22;11047;47.904;8.110;2023-07-20T08:12:32;20.40;99.90
21772;DHT22;11047;47.904;8.110;2023-07-20T08:14:59;20.40;99.90
21772;DHT22;11047;47.904;8.110;2023-07-20T08:17:26;20.50;99.90
21772;DHT22;11047;47.904;8.110;2023-07-20T08:19:53;20.50;99.90
21772;DHT22;11047;47.904;8.110;2023-07-20T08:22:20;20.30;99.90
21772;DHT22;11047;47.904;8.110;2023-07-20T08:24:48;20.50;99.90
21772;DHT22;11047;47.904;8.110;2023-07-20T08:27:15;20.80;99.90
21772;DHT22;11047;47.904;8.110;2023-07-20T08:29:42;21.20;99.90
21772;DHT22;11047;47.904;8.110;2023-07-20T08:32:09;21.10;99.90
21772;DHT22;11047;47.904;8.110;2023-07-20T08:34:36;21.10;99.90
21772;DHT22;11047;47.904;8.110;2023-07-20T08:37:03;20.90;99.90
21772;DHT22;11047;47.904;8.110;2023-07-20T08:39:30;20.60;99.90
21772;DHT22;11047;47.904;8.110;2023-07-20T08:42:00;20.70;99.90
21772;DHT22;11047;47.904;8.110;2023-07-20T08:44:32;20.70;99.90
21772;DHT22;11047;47.904;8.110;2023-07-20T08:47:01;21.40;99.90
21772;DHT22;11047;47.904;8.110;2023-07-20T08:49:30;21.80;99.90
21772;DHT22;11047;47.904;8.110;2023-07-20T08:51:58;22.00;99.90
21772;DHT22;11047;47.904;8.110;2023-07-20T08:54:29;22.10;99.90
21772;DHT22;11047;47.904;8.110;2023-07-20T08:57:02;21.90;99.90
21772;DHT22;11047;47.904;8.110;2023-07-20T08:59:30;22.00;99.90
21772;DHT22;11047;47.904;8.110;2023-07-20T09:01:58;21.70;99.90
21772;DHT22;11047;47.904;8.110;2023-07-20T09:04:25;21.30;99.90
21772;DHT22;11047;47.904;8.110;2023-07-20T09:06:52;21.70;99.90
21772;DHT22;11047;47.904;8.110;2023-07-20T09:09:19;21.50;99.90
21772;DHT22;11047;47.904;8.110;2023-07-20T09:11:47;21.90;99.90
21772;DHT22;11047;47.904;8.110;2023-07-20T09:14:16;22.30;99.90
21772;DHT22;11047;47.904;8.110;2023-07-20T09:16:47;22.80;99.90
21772;DHT22;11047;47.904;8.110;2023-07-20T09:19:15;22.90;99.90
21772;DHT22;11047;47.904;8.110;2023-07-20T09:21:44;22.90;99.90
21772;DHT22;11047;47.904;8.110;2023-07-20T09:24:12;23.20;99.90
21772;DHT22;11047;47.904;8.110;2023-07-20T09:26:43;23.20;99.90
21772;DHT22;11047;47.904;8.110;2023-07-20T09:29:11;23.60;99.90
21772;DHT22;11047;47.904;8.110;2023-07-20T09:31:39;23.70;99.90
21772;DHT22;11047;47.904;8.110;2023-07-20T09:34:07;23.20;99.90
21772;DHT22;11047;47.904;8.110;2023-07-20T09:36:35;23.50;99.90
21772;DHT22;11047;47.904;8.110;2023-07-20T09:39:03;23.80;99.90
21772;DHT22;11047;47.904;8.110;2023-07-20T09:41:39;23.60;99.90
21772;DHT22;11047;47.904;8.110;2023-07-20T09:44:07;23.20;99.90
21772;DHT22;11047;47.904;8.110;2023-07-20T09:46:43;23.00;99.90
21772;DHT22;11047;47.904;8.110;2023-07-20T09:49:10;23.50;99.90
21772;DHT22;11047;47.904;8.110;2023-07-20T09:51:37;23.00;99.90
21772;DHT22;11047;47.904;8.110;2023-07-20T09:54:05;23.20;99.90
21772;DHT22;11047;47.904;8.110;2023-07-20T09:56:33;23.70;99.90
21772;DHT22;11047;47.904;8.110;2023-07-20T09:59:01;23.60;99.90
21772;DHT22;11047;47.904;8.110;2023-07-20T10:01:29;24.10;99.90
21772;DHT22;11047;47.904;8.110;2023-07-20T10:03:58;23.80;99.90
21772;DHT22;11047;47.904;8.110;2023-07-20T10:06:28;23.60;99.90
21772;DHT22;11047;47.904;8.110;2023-07-20T10:09:01;23.50;99.90
21772;DHT22;11047;47.904;8.110;2023-07-20T10:11:31;23.90;99.90
21772;DHT22;11047;47.904;8.110;2023-07-20T10:13:59;23.40;99.90
21772;DHT22;11047;47.904;8.110;2023-07-20T10:16:30;23.30;99.90
21772;DHT22;11047;47.904;8.110;2023-07-20T10:19:05;23.20;99.90
21772;DHT22;11047;47.904;8.110;2023-07-20T10:21:35;23.20;99.90
21772;DHT22;11047;47.904;8.110;2023-07-20T10:24:05;23.80;99.90
21772;DHT22;11047;47.904;8.110;2023-07-20T10:26:33;24.00;99.90
21772;DHT22;11047;47.904;8.110;2023-07-20T10:29:01;24.20;99.90
21772;DHT22;11047;47.904;8.110;2023-07-20T10:31:28;24.30;99.90
21772;DHT22;11047;47.904;8.110;2023-07-20T10:33:57;23.70;99.90
21772;DHT22;11047;47.904;8.110;2023-07-20T10:36:28;23.80;99.90
21772;DHT22;11047;47.904;8.110;2023-07-20T10:38:56;24.20;99.90
21772;DHT22;11047;47.904;8.110;2023-07-20T10:41:28;24.40;99.90
21772;DHT22;11047;47.904;8.110;2023-07-20T10:43:59;24.20;99.90
21772;DHT22;11047;47.904;8.110;2023-07-20T10:46:44;24.80;99.90
21772;DHT22;11047;47.904;8.110;2023-07-20T10:49:12;24.90;99.90
21772;DHT22;11047;47.904;8.110;2023-07-20T10:51:42;24.60;99.90
21772;DHT22;11047;47.904;8.110;2023-07-20T10:57:28;24.50;99.90
21772;DHT22;11047;47.904;8.110;2023-07-20T11:00:08;24.90;99.90
21772;DHT22;11047;47.904;8.110;2023-07-20T11:02:44;25.10;99.90
21772;DHT22;11047;47.904;8.110;2023-07-20T11:05:33;25.00;99.90
21772;DHT22;11047;47.904;8.110;2023-07-20T11:08:05;25.10;99.90
21772;DHT22;11047;47.904;8.110;2023-07-20T11:10:32;25.40;99.90
21772;DHT22;11047;47.904;8.110;2023-07-20T11:13:19;25.30;99.90
21772;DHT22;11047;47.904;8.110;2023-07-20T11:15:53;25.00;99.90
21772;DHT22;11047;47.904;8.110;2023-07-20T11:18:27;25.00;99.90
21772;DHT22;11047;47.904;8.110;2023-07-20T11:20:54;24.60;99.90
21772;DHT22;11047;47.904;8.110;2023-07-20T11:23:23;24.60;99.90
21772;DHT22;11047;47.904;8.110;2023-07-20T11:25:50;24.70;99.90
21772;DHT22;11047;47.904;8.110;2023-07-20T11:28:17;24.90;99.90
21772;DHT22;11047;47.904;8.110;2023-07-20T11:30:44;24.90;99.90
21772;DHT22;11047;47.904;8.110;2023-07-20T11:33:11;25.60;99.90
21772;DHT22;11047;47.904;8.110;2023-07-20T11:35:42;25.50;99.90
21772;DHT22;11047;47.904;8.110;2023-07-20T11:38:09;25.50;99.90
21772;DHT22;11047;47.904;8.110;2023-07-20T11:40:42;25.50;99.90
21772;DHT22;11047;47.904;8.110;2023-07-20T11:43:10;25.00;99.90
21772;DHT22;11047;47.904;8.110;2023-07-20T11:45:38;25.20;99.90
21772;DHT22;11047;47.904;8.110;2023-07-20T11:48:05;25.10;99.90
21772;DHT22;11047;47.904;8.110;2023-07-20T11:50:32;25.10;99.90
21772;DHT22;11047;47.904;8.110;2023-07-20T11:53:04;24.90;99.90
21772;DHT22;11047;47.904;8.110;2023-07-20T11:55:32;24.50;99.90
21772;DHT22;11047;47.904;8.110;2023-07-20T11:58:04;24.20;99.90
21772;DHT22;11047;47.904;8.110;2023-07-20T12:00:32;24.50;99.90
21772;DHT22;11047;47.904;8.110;2023-07-20T12:02:59;25.00;99.90
21772;DHT22;11047;47.904;8.110;2023-07-20T12:05:26;25.20;99.90
21772;DHT22;11047;47.904;8.110;2023-07-20T12:07:54;25.30;99.90
21772;DHT22;11047;47.904;8.110;2023-07-20T12:10:26;25.50;99.90
21772;DHT22;11047;47.904;8.110;2023-07-20T12:12:54;25.60;99.90
21772;DHT22;11047;47.904;8.110;2023-07-20T12:15:24;25.50;99.90
21772;DHT22;11047;47.904;8.110;2023-07-20T12:17:53;25.30;99.90
21772;DHT22;11047;47.904;8.110;2023-07-20T12:20:28;25.50;99.90
21772;DHT22;11047;47.904;8.110;2023-07-20T12:22:58;25.20;99.90
21772;DHT22;11047;47.904;8.110;2023-07-20T12:25:37;25.50;99.90
21772;DHT22;11047;47.904;8.110;2023-07-20T12:28:06;25.30;99.90
21772;DHT22;11047;47.904;8.110;2023-07-20T12:30:35;25.80;99.90
21772;DHT22;11047;47.904;8.110;2023-07-20T12:33:02;25.30;99.90
21772;DHT22;11047;47.904;8.110;2023-07-20T12:35:29;25.30;99.90
21772;DHT22;11047;47.904;8.110;2023-07-20T12:37:57;25.50;99.90
21772;DHT22;11047;47.904;8.110;2023-07-20T12:40:24;25.50;99.90
21772;DHT22;11047;47.904;8.110;2023-07-20T12:42:51;25.50;99.90
21772;DHT22;11047;47.904;8.110;2023-07-20T12:45:18;25.40;99.90
21772;DHT22;11047;47.904;8.110;2023-07-20T12:47:46;25.60;99.90
21772;DHT22;11047;47.904;8.110;2023-07-20T12:50:13;25.60;99.90
21772;DHT22;11047;47.904;8.110;2023-07-20T12:52:40;25.00;99.90
21772;DHT22;11047;47.904;8.110;2023-07-20T12:55:09;25.00;99.90
21772;DHT22;11047;47.904;8.110;2023-07-20T12:57:36;24.90;99.90
21772;DHT22;11047;47.904;8.110;2023-07-20T13:00:04;25.10;99.90
21772;DHT22;11047;47.904;8.110;2023-07-20T13:02:33;24.90;99.90
21772;DHT22;11047;47.904;8.110;2023-07-20T13:05:02;24.90;99.90
21772;DHT22;11047;47.904;8.110;2023-07-20T13:07:33;24.90;99.90
21772;DHT22;11047;47.904;8.110;2023-07-20T13:10:01;24.70;99.90
21772;DHT22;11047;47.904;8.110;2023-07-20T13:12:30;25.00;99.90
21772;DHT22;11047;47.904;8.110;2023-07-20T13:14:57;24.80;99.90
21772;DHT22;11047;47.904;8.110;2023-07-20T13:17:26;24.80;99.90
21772;DHT22;11047;47.904;8.110;2023-07-20T13:19:54;24.90;99.90
21772;DHT22;11047;47.904;8.110;2023-07-20T13:22:22;24.70;99.90
21772;DHT22;11047;47.904;8.110;2023-07-20T13:24:50;24.80;99.90
21772;DHT22;11047;47.904;8.110;2023-07-20T13:27:17;24.90;99.90
21772;DHT22;11047;47.904;8.110;2023-07-20T13:29:44;24.90;99.90
21772;DHT22;11047;47.904;8.110;2023-07-20T13:32:13;24.90;99.90
21772;DHT22;11047;47.904;8.110;2023-07-20T13:34:40;24.90;99.90
21772;DHT22;11047;47.904;8.110;2023-07-20T13:37:08;24.90;99.90
21772;DHT22;11047;47.904;8.110;2023-07-20T13:39:36;24.90;99.90
21772;DHT22;11047;47.904;8.110;2023-07-20T13:42:04;24.50;99.90
21772;DHT22;11047;47.904;8.110;2023-07-20T13:44:31;24.60;99.90
21772;DHT22;11047;47.904;8.110;2023-07-20T13:46:58;24.90;99.90
21772;DHT22;11047;47.904;8.110;2023-07-20T13:49:25;24.50;99.90
21772;DHT22;11047;47.904;8.110;2023-07-20T13:51:52;24.60;99.90
21772;DHT22;11047;47.904;8.110;2023-07-20T13:54:19;24.60;99.90
21772;DHT22;11047;47.904;8.110;2023-07-20T13:56:47;24.60;99.90
21772;DHT22;11047;47.904;8.110;2023-07-20T13:59:14;24.30;99.90
21772;DHT22;11047;47.904;8.110;2023-07-20T14:01:41;24.50;99.90
21772;DHT22;11047;47.904;8.110;2023-07-20T14:04:08;24.60;99.90
21772;DHT22;11047;47.904;8.110;2023-07-20T14:06:35;24.20;99.90
21772;DHT22;11047;47.904;8.110;2023-07-20T14:09:02;24.30;99.90
21772;DHT22;11047;47.904;8.110;2023-07-20T14:11:29;24.30;99.90
21772;DHT22;11047;47.904;8.110;2023-07-20T14:13:57;24.60;99.90
21772;DHT22;11047;47.904;8.110;2023-07-20T14:16:25;24.70;99.90
21772;DHT22;11047;47.904;8.110;2023-07-20T14:18:52;24.70;99.90
21772;DHT22;11047;47.904;8.110;2023-07-20T14:21:20;24.60;99.90
21772;DHT22;11047;47.904;8.110;2023-07-20T14:23:48;24.70;99.90
21772;DHT22;11047;47.904;8.110;2023-07-20T14:26:16;24.70;99.90
21772;DHT22;11047;47.904;8.110;2023-07-20T14:28:43;24.70;99.90
21772;DHT22;11047;47.904;8.110;2023-07-20T14:31:11;24.40;99.90
21772;DHT22;11047;47.904;8.110;2023-07-20T14:33:39;24.10;99.90
21772;DHT22;11047;47.904;8.110;2023-07-20T14:36:06;23.80;99.90
21772;DHT22;11047;47.904;8.110;2023-07-20T14:38:33;24.20;99.90
21772;DHT22;11047;47.904;8.110;2023-07-20T14:41:00;23.90;99.90
21772;DHT22;11047;47.904;8.110;2023-07-20T14:43:27;24.00;99.90
21772;DHT22;11047;47.904;8.110;2023-07-20T14:45:55;23.90;99.90
21772;DHT22;11047;47.904;8.110;2023-07-20T14:48:23;23.90;99.90
21772;DHT22;11047;47.904;8.110;2023-07-20T14:50:50;23.90;99.90
21772;DHT22;11047;47.904;8.110;2023-07-20T14:53:17;24.20;99.90
21772;DHT22;11047;47.904;8.110;2023-07-20T14:55:44;24.20;99.90
21772;DHT22;11047;47.904;8.110;2023-07-20T14:58:11;24.30;99.90
21772;DHT22;11047;47.904;8.110;2023-07-20T15:00:38;24.30;99.90
21772;DHT22;11047;47.904;8.110;2023-07-20T15:03:05;24.40;99.90
21772;DHT22;11047;47.904;8.110;2023-07-20T15:05:36;24.20;99.90
21772;DHT22;11047;47.904;8.110;2023-07-20T15:08:04;24.20;99.90
21772;DHT22;11047;47.904;8.110;2023-07-20T15:10:32;24.20;99.90
21772;DHT22;11047;47.904;8.110;2023-07-20T15:12:59;24.10;99.90
21772;DHT22;11047;47.904;8.110;2023-07-20T15:15:26;24.10;99.90
21772;DHT22;11047;47.904;8.110;2023-07-20T15:17:53;24.20;99.90
21772;DHT22;11047;47.904;8.110;2023-07-20T15:20:20;24.10;99.90
21772;DHT22;11047;47.904;8.110;2023-07-20T15:22:48;24.00;99.90
21772;DHT22;11047;47.904;8.110;2023-07-20T15:25:15;24.10;99.90
21772;DHT22;11047;47.904;8.110;2023-07-20T15:27:42;24.00;99.90
21772;DHT22;11047;47.904;8.110;2023-07-20T15:30:10;23.50;99.90
21772;DHT22;11047;47.904;8.110;2023-07-20T15:32:37;23.40;99.90
21772;DHT22;11047;47.904;8.110;2023-07-20T15:35:06;23.50;99.90
21772;DHT22;11047;47.904;8.110;2023-07-20T15:37:34;23.50;99.90
21772;DHT22;11047;47.904;8.110;2023-07-20T15:40:04;23.50;99.90